Nyutabaru Airport Nyutabaru JP
ICAO: RJFN
IATA:
Category: Medium
Scheduled Services:

Elevation: 259 ft
TransAlt. 13500 ft.

Airport Communications:
MIYAZAKI APP:120.1
GND:27.58
METRO:34.46
TWR:126.2

RJFN Zoom In..

If you have problems with the map follow the link
https://www.worldairports.se/pages/airport.php?
ICAO=RJFN

Runways:

(A) RW 10 length 8858 ft width 148 ft
---- / hdg 108

(B) RW 28 length 8858 ft width 148 ft
ILS 111.30 / hdg 288

Location; RJFN
Day. 06 / Time. 09.25 Zulu
* Altimeter: 29.91
* Temperature: 22° c. 71.6°f.
* Wind from: 010° Speed 02 kn.
Dewpoint: 17° c.
Visibility: 10 km or more.
Clouds: Few 3000 ft.
Clouds: Broken 18000 ft.
Clouds: Broken 21000 ft.

RJFN 060925Z 01002KT 9999 FEW030 BKN180 BKN210 22/17 Q1012 RMK 1CU030 5AC180 A2991


Wind From 010°
Speed 02 kn.

 
 
jpsmedia.com for Web Design worldairports.se 2018   terms of use